createdAt,value
2017-10-14T00:01:20.703Z,89.20
2017-10-14T00:03:48.280Z,89.30
2017-10-14T00:06:15.869Z,89.50
2017-10-14T00:08:44.180Z,89.30
2017-10-14T00:11:11.752Z,89.30
2017-10-14T00:13:39.342Z,89.00
2017-10-14T00:16:07.277Z,88.80
2017-10-14T00:18:34.845Z,88.80
2017-10-14T00:21:02.382Z,89.00
2017-10-14T00:23:29.943Z,88.80
2017-10-14T00:25:57.505Z,88.60
2017-10-14T00:28:25.087Z,88.70
2017-10-14T00:30:52.647Z,88.90
2017-10-14T00:33:20.201Z,89.00
2017-10-14T00:35:47.789Z,89.20
2017-10-14T00:38:15.329Z,89.30
2017-10-14T00:40:42.891Z,89.50
2017-10-14T00:43:10.425Z,89.30
2017-10-14T00:45:37.995Z,89.30
2017-10-14T00:48:05.559Z,89.50
2017-10-14T00:50:33.095Z,89.60
2017-10-14T00:53:00.671Z,89.60
2017-10-14T00:55:28.196Z,89.70
2017-10-14T00:57:56.522Z,90.40
2017-10-14T01:00:24.113Z,90.40
2017-10-14T01:02:51.700Z,90.40
2017-10-14T01:05:19.251Z,90.50
2017-10-14T01:07:46.811Z,90.60
2017-10-14T01:10:15.154Z,90.60
2017-10-14T01:12:42.704Z,90.60
2017-10-14T01:15:11.241Z,90.50
2017-10-14T01:17:39.552Z,90.60
2017-10-14T01:20:07.125Z,90.70
2017-10-14T01:22:34.687Z,90.60
2017-10-14T01:25:02.248Z,90.50
2017-10-14T01:27:29.806Z,90.50
2017-10-14T01:29:57.378Z,90.30
2017-10-14T01:32:24.953Z,90.20
2017-10-14T01:34:52.525Z,90.00
2017-10-14T01:37:20.873Z,89.90
2017-10-14T01:39:48.423Z,89.80
2017-10-14T01:42:15.965Z,89.70
2017-10-14T01:44:43.546Z,89.60
2017-10-14T01:47:11.119Z,90.00
2017-10-14T01:49:38.667Z,89.80
2017-10-14T01:52:06.269Z,89.70
2017-10-14T01:54:34.621Z,89.40
2017-10-14T01:57:02.174Z,89.40
2017-10-14T01:59:29.736Z,89.60
2017-10-14T02:01:57.340Z,89.40
2017-10-14T02:04:24.923Z,89.50
2017-10-14T02:06:52.514Z,89.50
2017-10-14T02:09:20.066Z,89.60
2017-10-14T02:11:47.665Z,89.40
2017-10-14T02:14:15.992Z,89.10
2017-10-14T02:16:43.525Z,89.00
2017-10-14T02:19:11.100Z,88.90
2017-10-14T02:21:38.644Z,88.80
2017-10-14T02:24:06.224Z,89.00
2017-10-14T02:26:33.778Z,89.00
2017-10-14T02:29:01.342Z,88.80
2017-10-14T02:31:28.876Z,88.50
2017-10-14T02:33:57.205Z,88.80
2017-10-14T02:36:24.757Z,88.80
2017-10-14T02:38:52.350Z,88.90
2017-10-14T02:41:19.899Z,89.00
2017-10-14T02:43:47.462Z,89.70
2017-10-14T02:46:15.044Z,89.10
2017-10-14T02:48:43.374Z,88.90
2017-10-14T02:51:10.969Z,88.80
2017-10-14T02:53:38.520Z,88.70
2017-10-14T02:56:06.088Z,88.60
2017-10-14T02:58:33.633Z,89.10
2017-10-14T03:01:01.220Z,88.60
2017-10-14T03:03:29.554Z,89.40
2017-10-14T03:05:57.154Z,89.40
2017-10-14T03:08:25.484Z,89.10
2017-10-14T03:10:53.069Z,89.10
2017-10-14T03:13:21.417Z,88.50
2017-10-14T03:15:48.964Z,89.60
2017-10-14T03:18:16.742Z,89.60
2017-10-14T03:20:44.305Z,89.50
2017-10-14T03:23:11.842Z,89.30
2017-10-14T03:25:39.704Z,89.50
2017-10-14T03:28:07.317Z,89.30
2017-10-14T03:30:34.880Z,89.50
2017-10-14T03:33:02.453Z,89.60
2017-10-14T03:35:30.763Z,89.80
2017-10-14T03:37:58.334Z,89.80
2017-10-14T03:40:25.902Z,89.30
2017-10-14T03:42:53.484Z,89.50
2017-10-14T03:45:21.047Z,89.70
2017-10-14T03:47:48.593Z,89.90
2017-10-14T03:50:16.150Z,89.90
2017-10-14T03:52:43.693Z,89.90
2017-10-14T03:55:11.251Z,89.70
2017-10-14T03:57:38.773Z,89.40
2017-10-14T04:00:07.097Z,89.30
2017-10-14T04:02:34.642Z,89.30
2017-10-14T04:05:02.191Z,89.20
2017-10-14T04:07:29.737Z,89.00
2017-10-14T04:09:58.047Z,89.40
2017-10-14T04:12:25.609Z,89.40
2017-10-14T04:14:53.158Z,89.60
2017-10-14T04:17:20.718Z,89.70
2017-10-14T04:19:48.275Z,89.90
2017-10-14T04:22:15.851Z,90.00
2017-10-14T04:24:43.415Z,90.00
2017-10-14T04:27:10.985Z,89.90
2017-10-14T04:29:38.528Z,89.70
2017-10-14T04:32:06.062Z,89.80
2017-10-14T04:34:34.384Z,90.00
2017-10-14T04:37:01.954Z,90.00
2017-10-14T04:39:29.524Z,90.20
2017-10-14T04:41:57.071Z,90.10
2017-10-14T04:44:28.168Z,90.00
2017-10-14T04:46:56.616Z,90.10
2017-10-14T04:49:24.169Z,90.10
2017-10-14T04:51:51.725Z,90.00
2017-10-14T04:54:19.257Z,90.00
2017-10-14T04:56:46.814Z,90.10
2017-10-14T04:59:14.376Z,90.40
2017-10-14T05:01:42.685Z,90.30
2017-10-14T05:04:10.268Z,90.30
2017-10-14T05:06:38.561Z,90.40
2017-10-14T05:09:06.122Z,90.30
2017-10-14T05:11:33.905Z,90.40
2017-10-14T05:14:01.442Z,90.30
2017-10-14T05:16:28.994Z,90.10
2017-10-14T05:18:58.409Z,90.00
2017-10-14T05:21:26.020Z,90.00
2017-10-14T05:23:53.593Z,89.90
2017-10-14T05:26:21.150Z,89.90
2017-10-14T05:28:48.742Z,89.40
2017-10-14T05:31:16.335Z,89.60
2017-10-14T05:33:43.864Z,89.50
2017-10-14T05:36:12.173Z,89.40
2017-10-14T05:38:39.728Z,89.20
2017-10-14T05:41:08.056Z,89.90
2017-10-14T05:43:35.602Z,89.90
2017-10-14T05:46:03.163Z,89.70
2017-10-14T05:48:30.709Z,89.70
2017-10-14T05:50:58.292Z,89.40
2017-10-14T05:53:25.866Z,89.30
2017-10-14T05:55:54.182Z,88.90
2017-10-14T05:58:21.757Z,88.90
2017-10-14T06:00:49.318Z,88.60
2017-10-14T06:03:16.881Z,88.60
2017-10-14T06:05:44.508Z,88.60
2017-10-14T06:08:12.092Z,88.50
2017-10-14T06:10:39.686Z,88.40
2017-10-14T06:13:07.259Z,88.80
2017-10-14T06:15:34.829Z,88.80
2017-10-14T06:18:03.141Z,88.80
2017-10-14T06:20:30.703Z,88.80
2017-10-14T06:22:58.259Z,88.80
2017-10-14T06:25:25.828Z,88.90
2017-10-14T06:27:53.430Z,89.40
2017-10-14T06:30:20.979Z,89.80
2017-10-14T06:32:48.534Z,89.90
2017-10-14T06:35:16.077Z,89.80
2017-10-14T06:37:43.647Z,89.60
2017-10-14T06:40:11.212Z,89.80
2017-10-14T06:42:38.791Z,89.90
2017-10-14T06:45:06.343Z,89.90
2017-10-14T06:47:33.922Z,90.10
2017-10-14T06:50:02.232Z,90.20
2017-10-14T06:52:29.815Z,90.20
2017-10-14T06:54:57.378Z,90.30
2017-10-14T06:57:24.941Z,90.40
2017-10-14T06:59:52.526Z,90.50
2017-10-14T07:02:20.087Z,90.40
2017-10-14T07:04:47.653Z,89.80
2017-10-14T07:07:15.518Z,90.00
2017-10-14T07:09:43.080Z,90.00
2017-10-14T07:12:10.631Z,90.00
2017-10-14T07:14:38.198Z,90.00
2017-10-14T07:17:05.762Z,90.20
2017-10-14T07:19:34.094Z,90.70
2017-10-14T07:22:01.653Z,90.30
2017-10-14T07:24:29.253Z,90.30
2017-10-14T07:26:56.818Z,90.40
2017-10-14T07:29:24.372Z,90.80
2017-10-14T07:31:51.971Z,90.40
2017-10-14T07:34:19.542Z,90.50
2017-10-14T07:36:47.121Z,90.60
2017-10-14T07:39:15.253Z,90.60
2017-10-14T07:41:42.832Z,90.70
2017-10-14T07:44:10.433Z,90.90
2017-10-14T07:46:37.992Z,91.00
2017-10-14T07:49:05.733Z,91.00
2017-10-14T07:51:33.312Z,91.10
2017-10-14T07:54:00.907Z,91.20
2017-10-14T07:56:29.231Z,91.30
2017-10-14T07:58:56.807Z,91.30
2017-10-14T08:01:24.438Z,91.20
2017-10-14T08:03:52.037Z,91.00
2017-10-14T08:06:19.618Z,91.00
2017-10-14T08:08:47.202Z,90.70
2017-10-14T08:11:14.768Z,90.70
2017-10-14T08:13:42.316Z,90.70
2017-10-14T08:16:10.666Z,90.40
2017-10-14T08:18:38.242Z,90.40
2017-10-14T08:21:06.579Z,90.40
2017-10-14T08:23:34.118Z,90.40
2017-10-14T08:26:01.678Z,90.20
2017-10-14T08:28:30.044Z,90.10
2017-10-14T08:30:57.621Z,90.00
2017-10-14T08:33:25.959Z,89.50
2017-10-14T08:35:54.283Z,89.60
2017-10-14T08:38:21.850Z,89.60
2017-10-14T08:40:49.429Z,89.40
2017-10-14T08:43:17.007Z,90.00
2017-10-14T08:45:44.571Z,89.60
2017-10-14T08:48:12.920Z,89.20
2017-10-14T08:50:40.550Z,89.20
2017-10-14T08:53:08.139Z,89.30
2017-10-14T08:55:35.714Z,89.40
2017-10-14T08:58:03.308Z,88.50
2017-10-14T09:00:31.671Z,87.60
2017-10-14T09:03:00.029Z,86.60
2017-10-14T09:05:27.598Z,86.60
2017-10-14T09:07:55.216Z,86.50
2017-10-14T09:10:22.786Z,86.00
2017-10-14T09:12:50.343Z,86.00
2017-10-14T09:15:17.945Z,85.90
2017-10-14T09:17:45.492Z,85.20
2017-10-14T09:20:13.119Z,84.20
2017-10-14T09:22:40.665Z,84.80
2017-10-14T09:25:08.252Z,84.40
2017-10-14T09:27:35.803Z,84.60
2017-10-14T09:30:03.400Z,84.40
2017-10-14T09:32:30.970Z,84.30
2017-10-14T09:34:58.550Z,85.20
2017-10-14T09:37:26.899Z,82.50
2017-10-14T09:39:54.467Z,82.50
2017-10-14T09:42:22.066Z,82.10
2017-10-14T09:44:49.605Z,82.00
2017-10-14T09:47:17.950Z,82.50
2017-10-14T09:49:45.501Z,82.40
2017-10-14T09:52:13.083Z,81.10
2017-10-14T09:54:40.681Z,82.80
2017-10-14T09:57:08.224Z,80.40
2017-10-14T09:59:36.554Z,79.60
2017-10-14T10:02:04.112Z,79.60
2017-10-14T10:04:31.711Z,80.80
2017-10-14T10:09:59.869Z,78.50
2017-10-14T10:12:27.421Z,78.50
2017-10-14T10:14:54.999Z,78.30
2017-10-14T10:17:22.565Z,78.00
2017-10-14T10:19:50.134Z,77.20
2017-10-14T10:22:17.693Z,76.90
2017-10-14T10:24:45.261Z,76.40
2017-10-14T10:27:12.832Z,74.40
2017-10-14T10:29:41.171Z,74.10
2017-10-14T10:32:08.751Z,74.00
2017-10-14T10:34:36.310Z,73.40
2017-10-14T10:37:03.906Z,71.80
2017-10-14T10:39:32.217Z,72.30
2017-10-14T10:41:59.797Z,72.20
2017-10-14T10:44:27.424Z,70.20
2017-10-14T10:46:55.027Z,71.10
2017-10-14T10:49:22.633Z,71.10
2017-10-14T10:51:50.170Z,71.10
2017-10-14T10:54:18.534Z,66.80
2017-10-14T10:56:46.143Z,66.80
2017-10-14T10:59:14.281Z,66.90
2017-10-14T11:01:42.628Z,67.30
2017-10-14T11:04:10.261Z,67.30
2017-10-14T11:06:37.857Z,62.90
2017-10-14T11:09:05.424Z,61.90
2017-10-14T11:11:32.985Z,64.10
2017-10-14T11:14:00.523Z,62.90
2017-10-14T11:16:28.089Z,61.90
2017-10-14T11:18:55.654Z,60.90
2017-10-14T11:21:23.260Z,60.40
2017-10-14T11:23:50.809Z,58.90
2017-10-14T11:26:26.357Z,58.20
2017-10-14T11:28:54.714Z,59.20
2017-10-14T11:31:26.397Z,59.30
2017-10-14T11:33:54.151Z,59.90
2017-10-14T11:36:21.725Z,59.00
2017-10-14T11:38:50.189Z,55.20
2017-10-14T11:41:18.554Z,55.20
2017-10-14T11:43:46.123Z,55.10
2017-10-14T11:46:13.736Z,55.50
2017-10-14T11:48:41.300Z,57.10
2017-10-14T11:51:08.895Z,57.20
2017-10-14T11:53:36.471Z,58.20
2017-10-14T11:56:04.055Z,56.10
2017-10-14T11:58:32.481Z,54.00
2017-10-14T12:01:00.103Z,53.90
2017-10-14T12:03:28.421Z,51.80
2017-10-14T12:05:56.003Z,52.00
2017-10-14T12:08:23.586Z,52.30
2017-10-14T12:10:51.948Z,51.40
2017-10-14T12:13:19.511Z,51.30
2017-10-14T12:15:47.912Z,52.60
2017-10-14T12:18:16.231Z,51.80
2017-10-14T12:20:43.815Z,51.70
2017-10-14T12:23:11.353Z,51.10
2017-10-14T12:25:38.915Z,52.30
2017-10-14T12:28:06.496Z,52.90
2017-10-14T12:30:34.042Z,52.50
2017-10-14T12:33:01.622Z,51.60
2017-10-14T12:35:30.783Z,52.90
2017-10-14T12:38:01.072Z,49.70
2017-10-14T12:40:32.861Z,49.50
2017-10-14T12:43:00.417Z,50.10
2017-10-14T12:45:28.000Z,48.50
2017-10-14T12:47:56.318Z,49.20
2017-10-14T12:50:24.654Z,49.60
2017-10-14T12:52:52.216Z,49.50
2017-10-14T12:55:19.774Z,49.30
2017-10-14T12:57:47.319Z,49.90
2017-10-14T13:00:14.899Z,48.50
2017-10-14T13:02:42.470Z,47.60
2017-10-14T13:05:10.014Z,47.10
2017-10-14T13:07:37.588Z,48.60
2017-10-14T13:10:05.177Z,48.80
2017-10-14T13:12:33.492Z,47.90
2017-10-14T13:15:01.051Z,47.90
2017-10-14T13:17:28.616Z,47.70
2017-10-14T13:19:57.160Z,48.70
2017-10-14T13:22:25.485Z,48.00
2017-10-14T13:24:53.026Z,48.00
2017-10-14T13:27:20.589Z,48.10
2017-10-14T13:29:48.146Z,47.00
2017-10-14T13:32:15.734Z,46.80
2017-10-14T13:34:43.282Z,45.60
2017-10-14T13:37:10.865Z,45.40
2017-10-14T13:39:38.418Z,46.00
2017-10-14T13:42:06.004Z,46.70
2017-10-14T13:44:33.730Z,46.50
2017-10-14T13:47:02.032Z,46.80
2017-10-14T13:49:29.583Z,46.80
2017-10-14T13:51:57.142Z,47.20
2017-10-14T13:54:24.706Z,45.90
2017-10-14T13:56:53.205Z,47.30
2017-10-14T13:59:20.788Z,47.50
2017-10-14T14:01:49.086Z,49.10
2017-10-14T14:04:16.659Z,49.00
2017-10-14T14:06:44.222Z,49.70
2017-10-14T14:09:11.890Z,50.10
2017-10-14T14:11:39.445Z,51.20
2017-10-14T14:14:12.958Z,49.20
2017-10-14T14:16:40.980Z,49.50
2017-10-14T14:19:08.717Z,49.00
2017-10-14T14:21:37.227Z,48.60
2017-10-14T14:24:05.564Z,47.90
2017-10-14T14:26:33.127Z,47.90
2017-10-14T14:29:00.699Z,48.20
2017-10-14T14:31:28.548Z,48.40
2017-10-14T14:33:56.118Z,49.60
2017-10-14T14:36:23.692Z,49.10
2017-10-14T14:38:51.301Z,49.60
2017-10-14T14:41:18.869Z,50.30
2017-10-14T14:43:46.418Z,50.40
2017-10-14T14:46:13.988Z,50.80
2017-10-14T14:48:41.582Z,50.60
2017-10-14T14:51:09.676Z,51.60
2017-10-14T14:53:37.262Z,51.70
2017-10-14T14:56:05.005Z,52.60
2017-10-14T14:58:32.598Z,53.60
2017-10-14T15:01:00.806Z,52.00
2017-10-14T15:03:28.449Z,51.10
2017-10-14T15:05:56.788Z,52.60
2017-10-14T15:08:24.380Z,52.60
2017-10-14T15:10:54.746Z,53.50
2017-10-14T15:13:22.718Z,54.40
2017-10-14T15:15:52.125Z,54.60
2017-10-14T15:18:20.339Z,54.90
2017-10-14T15:20:49.270Z,55.90
2017-10-14T15:23:18.104Z,56.30
2017-10-14T15:25:46.102Z,56.20
2017-10-14T15:28:13.968Z,56.50
2017-10-14T15:30:41.680Z,57.00
2017-10-14T15:33:09.286Z,56.40
2017-10-14T15:35:37.138Z,56.40
2017-10-14T15:38:05.786Z,58.10
2017-10-14T15:40:33.565Z,58.10
2017-10-14T15:43:02.123Z,59.00
2017-10-14T15:45:29.938Z,59.00
2017-10-14T15:47:58.383Z,60.00
2017-10-14T15:50:26.177Z,60.00
2017-10-14T15:52:54.766Z,60.40
2017-10-14T15:55:22.347Z,60.30
2017-10-14T15:57:50.733Z,61.50
2017-10-14T16:00:18.292Z,62.30
2017-10-14T16:02:45.869Z,62.20
2017-10-14T16:05:13.425Z,62.60
2017-10-14T16:07:40.997Z,63.40
2017-10-14T16:10:08.522Z,64.80
2017-10-14T16:12:36.861Z,66.30
2017-10-14T16:15:04.410Z,66.20
2017-10-14T16:17:41.449Z,67.10
2017-10-14T16:20:22.253Z,67.20
2017-10-14T16:22:51.364Z,68.40
2017-10-14T16:25:23.246Z,68.70
2017-10-14T16:27:50.813Z,69.70
2017-10-14T16:30:18.408Z,70.20
2017-10-14T16:32:56.536Z,70.80
2017-10-14T16:35:24.409Z,71.70
2017-10-14T16:37:51.956Z,72.60
2017-10-14T16:40:19.549Z,73.70
2017-10-14T16:42:47.093Z,73.30
2017-10-14T16:45:15.455Z,73.70
2017-10-14T16:47:43.000Z,73.90
2017-10-14T16:50:22.608Z,74.50
2017-10-14T16:52:58.517Z,75.00
2017-10-14T16:55:27.611Z,75.20
2017-10-14T16:57:55.249Z,75.60
2017-10-14T17:03:32.091Z,76.80
2017-10-14T17:06:05.725Z,76.70
2017-10-14T17:08:36.316Z,77.20
2017-10-14T17:11:07.737Z,77.30
2017-10-14T17:13:37.527Z,78.20
2017-10-14T17:16:05.884Z,78.30
2017-10-14T17:18:35.112Z,78.20
2017-10-14T17:21:09.977Z,78.60
2017-10-14T17:23:37.563Z,78.50
2017-10-14T17:26:09.125Z,78.80
2017-10-14T17:28:39.897Z,79.30
2017-10-14T17:31:10.433Z,79.30
2017-10-14T17:33:41.329Z,79.40
2017-10-14T17:36:10.357Z,79.40
2017-10-14T17:38:39.564Z,79.90
2017-10-14T17:41:10.006Z,80.40
2017-10-14T17:43:40.469Z,80.40
2017-10-14T17:46:11.401Z,80.50
2017-10-14T17:48:40.099Z,80.60
2017-10-14T17:51:09.500Z,80.60
2017-10-14T17:53:39.204Z,81.00
2017-10-14T17:56:08.409Z,81.40
2017-10-14T17:58:38.622Z,81.40
2017-10-14T18:01:09.255Z,81.60
2017-10-14T18:03:39.839Z,82.00
2017-10-14T18:06:09.752Z,81.90
2017-10-14T18:08:39.511Z,82.40
2017-10-14T18:11:10.066Z,82.40
2017-10-14T18:13:50.668Z,83.00
2017-10-14T18:16:19.632Z,82.60
2017-10-14T18:18:49.931Z,83.20
2017-10-14T18:21:21.467Z,83.20
2017-10-14T18:23:50.454Z,83.40
2017-10-14T18:26:19.179Z,83.40
2017-10-14T18:28:46.739Z,83.40
2017-10-14T18:31:14.482Z,83.20
2017-10-14T18:33:42.049Z,83.30
2017-10-14T18:36:12.714Z,83.50
2017-10-14T18:38:42.863Z,83.90
2017-10-14T18:41:10.722Z,84.30
2017-10-14T18:43:43.895Z,84.20
2017-10-14T18:46:12.758Z,84.20
2017-10-14T18:48:41.806Z,84.20
2017-10-14T18:51:12.840Z,84.10
2017-10-14T18:53:42.901Z,84.20
2017-10-14T18:56:11.435Z,84.20
2017-10-14T18:58:42.264Z,84.60
2017-10-14T19:01:12.081Z,84.50
2017-10-14T19:03:41.839Z,84.60
2017-10-14T19:06:11.842Z,84.50
2017-10-14T19:08:42.267Z,84.90
2017-10-14T19:11:11.894Z,85.10
2017-10-14T19:13:42.560Z,85.00
2017-10-14T19:16:12.393Z,84.80
2017-10-14T19:18:43.831Z,85.10
2017-10-14T19:21:11.500Z,85.10
2017-10-14T19:23:41.774Z,86.60
2017-10-14T19:26:12.810Z,86.60
2017-10-14T19:28:41.432Z,87.30
2017-10-14T19:31:12.266Z,87.30
2017-10-14T19:33:43.385Z,87.30
2017-10-14T19:36:11.603Z,87.20
2017-10-14T19:38:39.171Z,87.40
2017-10-14T19:41:07.761Z,87.60
2017-10-14T19:43:37.187Z,87.30
2017-10-14T19:46:14.762Z,87.10
2017-10-14T19:48:42.366Z,86.90
2017-10-14T19:51:09.948Z,86.80
2017-10-14T19:53:41.372Z,86.70
2017-10-14T19:56:09.411Z,86.50
2017-10-14T19:58:39.919Z,86.30
2017-10-14T20:01:11.080Z,86.20
2017-10-14T20:03:40.982Z,86.40
2017-10-14T20:06:12.131Z,86.30
2017-10-14T20:08:40.471Z,86.30
2017-10-14T20:11:09.499Z,86.30
2017-10-14T20:13:40.484Z,86.20
2017-10-14T20:16:09.581Z,86.10
2017-10-14T20:18:40.925Z,86.10
2017-10-14T20:21:09.472Z,86.50
2017-10-14T20:23:40.857Z,88.80
2017-10-14T20:26:09.430Z,88.90
2017-10-14T20:28:39.302Z,89.10
2017-10-14T20:31:10.011Z,89.10
2017-10-14T20:33:40.552Z,88.80
2017-10-14T20:36:08.126Z,89.00
2017-10-14T20:38:44.625Z,89.00
2017-10-14T20:41:12.212Z,89.10
2017-10-14T20:43:42.052Z,90.00
2017-10-14T20:46:10.359Z,90.20
2017-10-14T20:48:41.977Z,90.20
2017-10-14T20:51:13.215Z,90.10
2017-10-14T20:53:41.753Z,90.00
2017-10-14T20:56:10.617Z,90.10
2017-10-14T20:58:40.935Z,89.80
2017-10-14T21:01:09.967Z,90.10
2017-10-14T21:03:41.429Z,90.10
2017-10-14T21:06:08.997Z,90.00
2017-10-14T21:08:40.220Z,90.00
2017-10-14T21:11:11.934Z,89.80
2017-10-14T21:13:47.252Z,89.70
2017-10-14T21:16:19.965Z,90.00
2017-10-14T21:18:52.511Z,89.80
2017-10-14T21:21:21.366Z,89.60
2017-10-14T21:23:53.669Z,89.50
2017-10-14T21:29:22.484Z,89.30
2017-10-14T21:31:50.435Z,88.90
2017-10-14T21:34:22.045Z,89.00
2017-10-14T21:36:52.393Z,89.60
2017-10-14T21:39:25.688Z,89.10
2017-10-14T21:41:53.298Z,89.00
2017-10-14T21:44:20.964Z,88.80
2017-10-14T21:46:50.769Z,89.00
2017-10-14T21:49:21.990Z,89.30
2017-10-14T21:51:53.484Z,88.80
2017-10-14T21:54:24.036Z,89.20
2017-10-14T21:56:53.670Z,89.20
2017-10-14T21:59:24.940Z,88.90
2017-10-14T22:01:53.698Z,88.80
2017-10-14T22:04:22.065Z,88.60
2017-10-14T22:06:50.402Z,88.60
2017-10-14T22:09:17.987Z,88.60
2017-10-14T22:11:45.540Z,88.50
2017-10-14T22:14:13.137Z,88.40
2017-10-14T22:16:41.518Z,88.70
2017-10-14T22:19:09.874Z,88.60
2017-10-14T22:21:37.434Z,88.60
2017-10-14T22:24:04.991Z,88.60
2017-10-14T22:26:32.613Z,88.00
2017-10-14T22:29:00.225Z,88.40
2017-10-14T22:31:28.557Z,88.10
2017-10-14T22:33:56.130Z,88.10
2017-10-14T22:36:23.697Z,88.10
2017-10-14T22:38:51.282Z,87.80
2017-10-14T22:41:18.906Z,88.00
2017-10-14T22:43:46.459Z,88.10
2017-10-14T22:46:14.049Z,88.80
2017-10-14T22:48:41.639Z,88.70
2017-10-14T22:51:10.002Z,88.60
2017-10-14T22:53:37.564Z,88.70
2017-10-14T22:56:05.929Z,88.40
2017-10-14T22:58:33.489Z,88.30
2017-10-14T23:01:01.034Z,88.40
2017-10-14T23:03:28.624Z,88.20
2017-10-14T23:05:56.965Z,88.10
2017-10-14T23:08:24.538Z,88.10
2017-10-14T23:10:52.093Z,88.00
2017-10-14T23:13:19.683Z,87.70
2017-10-14T23:15:48.029Z,88.80
2017-10-14T23:18:15.619Z,88.80
2017-10-14T23:20:43.982Z,89.40
2017-10-14T23:23:11.563Z,89.40
2017-10-14T23:25:39.935Z,88.70
2017-10-14T23:28:07.523Z,88.60
2017-10-14T23:30:35.082Z,88.80
2017-10-14T23:33:02.655Z,88.90
2017-10-14T23:35:30.214Z,89.20
2017-10-14T23:37:57.825Z,89.20
2017-10-14T23:40:25.394Z,89.50
2017-10-14T23:42:52.975Z,89.40
2017-10-14T23:45:21.311Z,89.00
2017-10-14T23:47:48.941Z,89.00
2017-10-14T23:50:16.508Z,88.70
2017-10-14T23:52:44.063Z,88.70
2017-10-14T23:55:11.650Z,88.50
2017-10-14T23:57:39.225Z,88.70
